Time;durP1;ratioP1;P1;durP2;ratioP2;P2;SDS_P1;SDS_P2;PMS_P1;PMS_P2;Temp;Humidity;BMP_temperature;BMP_pressure;BME280_temperature;BME280_humidity;BME280_pressure;Samples;Min_cycle;Max_cycle;Signal;HPM_P1;HPM_P2
2023/07/09 00:02:26;;;;;;;2.47;2.33;;;19.50;54.30;;;;;;5224833;28;20441;-44
2023/07/09 00:04:56;;;;;;;4.20;3.40;;;19.50;54.40;;;;;;5241953;28;20496;-43
2023/07/09 00:07:32;;;;;;;3.90;3.00;;;19.50;54.40;;;;;;5249049;28;20444;-42
2023/07/09 00:10:02;;;;;;;4.90;3.80;;;19.40;54.40;;;;;;5236340;28;20644;-43
2023/07/09 00:12:33;;;;;;;10.80;3.20;;;19.50;54.40;;;;;;5247047;28;20464;-43
2023/07/09 00:15:04;;;;;;;4.13;2.90;;;19.50;54.50;;;;;;5243608;28;20191;-44
2023/07/09 00:17:35;;;;;;;6.00;3.40;;;19.50;54.50;;;;;;5242489;28;20179;-44
2023/07/09 00:20:12;;;;;;;3.80;3.40;;;19.40;54.50;;;;;;5232360;28;20453;-46
2023/07/09 00:22:51;;;;;;;3.97;3.27;;;19.40;54.60;;;;;;5244415;28;20896;-44
2023/07/09 00:25:24;;;;;;;6.70;3.67;;;19.40;54.70;;;;;;5240092;28;20468;-43
2023/07/09 00:27:55;;;;;;;4.27;2.53;;;19.40;54.70;;;;;;5233141;28;20804;-43
2023/07/09 00:30:25;;;;;;;5.20;2.70;;;19.40;54.80;;;;;;5248989;28;20440;-47
2023/07/09 00:32:56;;;;;;;2.97;2.73;;;19.40;54.80;;;;;;5251118;28;20208;-44
2023/07/09 00:35:27;;;;;;;3.53;2.97;;;19.40;55.00;;;;;;5251567;28;20182;-44
2023/07/09 00:38:00;;;;;;;3.23;2.90;;;19.40;55.10;;;;;;5243332;28;20194;-44
2023/07/09 00:40:31;;;;;;;3.07;2.90;;;19.40;55.20;;;;;;5241986;28;20190;-44
2023/07/09 00:43:02;;;;;;;6.20;2.87;;;19.40;55.20;;;;;;5237498;28;20585;-43
2023/07/09 00:45:33;;;;;;;4.50;3.00;;;19.40;55.40;;;;;;5248813;28;20304;-43
2023/07/09 00:48:12;;;;;;;3.10;2.90;;;19.50;55.20;;;;;;5249531;28;20232;-44
2023/07/09 00:50:50;;;;;;;3.10;2.80;;;19.50;55.20;;;;;;5264646;28;20444;-43
2023/07/09 00:53:29;;;;;;;3.30;2.60;;;19.50;55.20;;;;;;5261931;28;20464;-43
2023/07/09 00:56:05;;;;;;;2.97;2.70;;;19.50;55.20;;;;;;5266446;28;20444;-44
2023/07/09 00:58:37;;;;;;;2.67;2.57;;;19.50;55.20;;;;;;5263613;28;20550;-44
2023/07/09 01:01:17;;;;;;;2.60;2.50;;;19.50;55.30;;;;;;5262324;28;20541;-44
2023/07/09 01:03:52;;;;;;;2.80;2.70;;;19.50;55.20;;;;;;5269107;28;20439;-44
2023/07/09 01:06:34;;;;;;;2.97;2.60;;;19.50;55.30;;;;;;5250739;28;20463;-43
2023/07/09 01:09:07;;;;;;;7.13;3.40;;;19.50;55.30;;;;;;5243151;28;20459;-43
2023/07/09 01:11:40;;;;;;;3.83;3.07;;;19.50;55.40;;;;;;5256715;28;20436;-43
2023/07/09 01:14:16;;;;;;;3.33;3.03;;;19.50;55.40;;;;;;5247309;28;20440;-42
2023/07/09 01:16:57;;;;;;;7.23;4.20;;;19.50;55.60;;;;;;5251217;28;20988;-43
2023/07/09 01:19:29;;;;;;;52.30;30.73;;;19.50;55.60;;;;;;5254926;28;20531;-43
2023/07/09 01:22:01;;;;;;;46.47;28.03;;;19.50;55.70;;;;;;5249671;28;20474;-44
2023/07/09 01:24:51;;;;;;;35.50;19.83;;;19.50;55.60;;;;;;5230162;28;20767;-43
2023/07/09 01:27:27;;;;;;;34.83;13.13;;;19.50;55.80;;;;;;5244439;28;20547;-44
2023/07/09 01:29:59;;;;;;;7.50;3.20;;;19.50;56.00;;;;;;5248397;28;20460;-43
2023/07/09 01:32:30;;;;;;;8.60;2.47;;;19.40;55.80;;;;;;5264662;28;20436;-43
2023/07/09 01:35:06;;;;;;;4.90;2.37;;;19.40;55.90;;;;;;5263998;28;20412;-43
2023/07/09 01:37:38;;;;;;;7.43;3.17;;;19.40;55.80;;;;;;5259940;28;20181;-44
2023/07/09 01:40:11;;;;;;;7.93;3.53;;;19.50;55.70;;;;;;5233374;28;20456;-43
2023/07/09 01:42:42;;;;;;;6.70;4.00;;;19.50;55.80;;;;;;5262322;28;20892;-44
2023/07/09 01:45:13;;;;;;;6.23;3.80;;;19.50;55.80;;;;;;5239658;28;20467;-43
2023/07/09 01:47:44;;;;;;;13.70;3.87;;;19.50;56.40;;;;;;5252764;28;20433;-47
2023/07/09 01:50:16;;;;;;;3.60;3.30;;;19.50;55.70;;;;;;5245268;28;20218;-44
2023/07/09 01:52:49;;;;;;;6.77;2.90;;;19.50;55.60;;;;;;5244244;28;20199;-43
2023/07/09 01:55:20;;;;;;;6.20;3.07;;;19.50;55.70;;;;;;5237421;28;20433;-43
2023/07/09 01:57:52;;;;;;;5.77;2.77;;;19.50;55.80;;;;;;5266313;28;20492;-43
2023/07/09 02:00:22;;;;;;;3.43;2.50;;;19.50;55.90;;;;;;5263987;28;20436;-44
2023/07/09 02:02:54;;;;;;;3.10;2.50;;;19.50;56.00;;;;;;5247404;28;20989;-44
2023/07/09 02:05:26;;;;;;;3.10;2.80;;;19.50;55.80;;;;;;5241943;28;20202;-44
2023/07/09 02:07:57;;;;;;;3.03;2.63;;;19.50;55.70;;;;;;5245593;28;20926;-43
2023/07/09 02:10:27;;;;;;;4.80;3.10;;;19.50;55.80;;;;;;5256994;28;20426;-44
2023/07/09 02:12:58;;;;;;;5.20;3.00;;;19.60;56.00;;;;;;5260078;28;20578;-43
2023/07/09 02:15:30;;;;;;;3.53;3.20;;;19.60;55.60;;;;;;5267933;28;20540;-44
2023/07/09 02:18:01;;;;;;;12.50;2.50;;;19.60;55.80;;;;;;5256799;28;20523;-43
2023/07/09 02:20:32;;;;;;;6.47;2.80;;;19.60;55.80;;;;;;5266033;28;20431;-44
2023/07/09 02:23:03;;;;;;;3.17;2.40;;;19.60;55.80;;;;;;5268860;28;20498;-43
2023/07/09 02:25:34;;;;;;;4.60;2.50;;;19.50;55.90;;;;;;5262081;28;20616;-43
2023/07/09 02:28:05;;;;;;;2.87;2.70;;;19.50;56.00;;;;;;5250869;28;20446;-42
2023/07/09 02:30:35;;;;;;;3.60;2.57;;;19.50;56.10;;;;;;5268286;28;20439;-43
2023/07/09 02:33:06;;;;;;;3.40;2.23;;;19.50;56.20;;;;;;5266931;28;20217;-43
2023/07/09 02:35:37;;;;;;;3.17;2.77;;;19.40;56.30;;;;;;5231194;28;20178;-42
2023/07/09 02:38:07;;;;;;;8.77;3.10;;;19.40;56.40;;;;;;5249208;28;20220;-43
2023/07/09 02:40:39;;;;;;;11.93;3.03;;;19.40;56.70;;;;;;5264590;28;20423;-43
2023/07/09 02:43:10;;;;;;;2.70;2.50;;;19.30;56.80;;;;;;5253048;28;20185;-42
2023/07/09 02:45:40;;;;;;;12.43;2.67;;;19.30;57.00;;;;;;5262246;28;20468;-51
2023/07/09 02:48:11;;;;;;;3.00;2.70;;;19.30;57.30;;;;;;5269384;28;20654;-43
2023/07/09 02:50:41;;;;;;;3.97;2.77;;;19.20;57.60;;;;;;5262871;28;20197;-43
2023/07/09 02:53:12;;;;;;;3.57;3.13;;;19.20;57.80;;;;;;5255644;28;20185;-43
2023/07/09 02:55:43;;;;;;;3.57;3.37;;;19.20;58.00;;;;;;5272957;28;20185;-43
2023/07/09 02:58:13;;;;;;;4.77;3.50;;;19.10;58.50;;;;;;5265617;28;20263;-43
2023/07/09 03:00:51;;;;;;;3.70;3.07;;;19.00;58.90;;;;;;5255638;28;20216;-43
2023/07/09 03:03:22;;;;;;;3.07;2.87;;;18.90;59.10;;;;;;5253395;28;20272;-42
2023/07/09 03:05:52;;;;;;;3.43;3.23;;;18.90;59.40;;;;;;5263861;28;20550;-42
2023/07/09 03:08:24;;;;;;;3.60;3.30;;;18.70;59.90;;;;;;5251724;28;20753;-43
2023/07/09 03:10:55;;;;;;;2.87;2.67;;;18.70;60.50;;;;;;5269983;28;20272;-43
2023/07/09 03:13:25;;;;;;;10.13;2.77;;;18.60;60.60;;;;;;5265837;28;20519;-43
2023/07/09 03:15:57;;;;;;;3.90;2.67;;;18.50;61.00;;;;;;5255333;28;20200;-43
2023/07/09 03:18:28;;;;;;;6.67;3.37;;;18.40;61.30;;;;;;5248506;28;20288;-43
2023/07/09 03:20:59;;;;;;;3.10;2.90;;;18.30;61.60;;;;;;5263556;28;20508;-43
2023/07/09 03:23:30;;;;;;;2.90;2.77;;;18.30;62.20;;;;;;5266383;28;20194;-43
2023/07/09 03:26:00;;;;;;;2.70;2.50;;;18.20;62.90;;;;;;5271458;28;20998;-43
2023/07/09 03:28:32;;;;;;;3.20;3.00;;;18.20;63.30;;;;;;5250267;28;20216;-43
2023/07/09 03:31:02;;;;;;;3.40;3.10;;;18.10;63.90;;;;;;5252252;28;20190;-43
2023/07/09 03:33:33;;;;;;;6.00;3.10;;;18.10;64.20;;;;;;5263259;28;20927;-43
2023/07/09 03:36:05;;;;;;;4.43;2.97;;;18.10;64.50;;;;;;5262353;28;20190;-43
2023/07/09 03:38:35;;;;;;;4.53;3.40;;;18.10;64.90;;;;;;5248091;28;20206;-42
2023/07/09 03:41:06;;;;;;;5.30;3.40;;;18.10;65.30;;;;;;5270281;28;20983;-42
2023/07/09 03:43:36;;;;;;;2.70;2.60;;;18.10;65.70;;;;;;5253087;28;20193;-43
2023/07/09 03:46:07;;;;;;;3.00;2.70;;;18.00;65.80;;;;;;5235785;28;20518;-42
2023/07/09 03:48:38;;;;;;;4.40;2.80;;;18.10;66.30;;;;;;5264547;28;20270;-43
2023/07/09 03:51:08;;;;;;;4.73;3.27;;;18.10;67.00;;;;;;5248577;28;20190;-43
2023/07/09 03:53:39;;;;;;;6.20;3.10;;;18.10;67.00;;;;;;5256137;28;20196;-42
2023/07/09 03:56:10;;;;;;;3.93;3.57;;;18.10;67.30;;;;;;5250368;28;20182;-43
2023/07/09 03:58:40;;;;;;;3.30;3.00;;;18.10;67.60;;;;;;5259587;28;20220;-44
2023/07/09 04:01:11;;;;;;;3.00;2.80;;;18.10;68.00;;;;;;5269033;28;20189;-43
2023/07/09 04:03:42;;;;;;;6.57;3.83;;;18.10;67.90;;;;;;5263223;28;20196;-43
2023/07/09 04:06:12;;;;;;;3.70;3.40;;;18.10;68.70;;;;;;5246921;28;20706;-43
2023/07/09 04:08:43;;;;;;;2.80;2.70;;;18.20;69.30;;;;;;5256970;28;20217;-43
2023/07/09 04:11:13;;;;;;;4.07;3.67;;;18.20;69.60;;;;;;5248492;28;20181;-43
2023/07/09 04:13:44;;;;;;;9.70;3.30;;;18.30;69.90;;;;;;5261362;28;20208;-44
2023/07/09 04:16:14;;;;;;;3.80;3.20;;;18.30;69.80;;;;;;5257095;28;20608;-43
2023/07/09 04:18:45;;;;;;;4.10;3.57;;;18.40;69.80;;;;;;5250003;28;20206;-42
2023/07/09 04:21:16;;;;;;;3.30;3.00;;;18.50;69.60;;;;;;5269103;28;20209;-42
2023/07/09 04:23:46;;;;;;;6.60;3.50;;;18.60;69.60;;;;;;5269522;28;20186;-44
2023/07/09 04:26:17;;;;;;;4.90;2.33;;;18.70;69.50;;;;;;5268064;28;20225;-44
2023/07/09 04:28:48;;;;;;;3.97;3.67;;;18.90;69.00;;;;;;5263207;28;20198;-43
2023/07/09 04:31:18;;;;;;;3.07;2.83;;;19.00;67.70;;;;;;5251295;28;20189;-43
2023/07/09 04:33:49;;;;;;;3.03;2.73;;;19.20;67.10;;;;;;5257474;28;20228;-43
2023/07/09 04:36:19;;;;;;;14.27;3.60;;;19.30;66.20;;;;;;5267973;28;20182;-43
2023/07/09 04:38:50;;;;;;;5.23;3.37;;;19.50;65.70;;;;;;5257544;28;20251;-43
2023/07/09 04:41:21;;;;;;;4.50;2.93;;;19.60;64.90;;;;;;5268932;28;20227;-43
2023/07/09 04:43:52;;;;;;;3.90;3.50;;;19.60;64.80;;;;;;5265670;28;20587;-43
2023/07/09 04:46:23;;;;;;;3.40;3.10;;;19.70;64.90;;;;;;5248717;28;20220;-42
2023/07/09 04:48:55;;;;;;;2.97;2.77;;;19.80;64.40;;;;;;5265769;22;20484;-46
2023/07/09 04:51:26;;;;;;;4.13;2.87;;;20.10;63.90;;;;;;5239554;28;20175;-46
2023/07/09 04:53:57;;;;;;;3.60;3.10;;;20.50;62.60;;;;;;5244169;28;20511;-47
2023/07/09 04:56:29;;;;;;;2.90;2.80;;;21.10;61.20;;;;;;5247692;28;20498;-47
2023/07/09 04:59:00;;;;;;;4.10;2.70;;;21.70;59.30;;;;;;5244581;28;20199;-47
2023/07/09 05:01:30;;;;;;;4.77;3.57;;;22.10;57.90;;;;;;5221367;28;20561;-47
2023/07/09 05:04:01;;;;;;;4.10;3.43;;;22.40;57.30;;;;;;5228960;28;20178;-47
2023/07/09 05:06:32;;;;;;;4.27;3.03;;;22.60;56.70;;;;;;5218892;28;20218;-46
2023/07/09 05:09:03;;;;;;;6.90;3.57;;;22.70;55.60;;;;;;5222691;28;20207;-46
2023/07/09 05:11:35;;;;;;;3.33;3.00;;;22.80;55.50;;;;;;5219405;28;20429;-47
2023/07/09 05:14:06;;;;;;;2.80;2.70;;;23.00;55.10;;;;;;5225735;28;20638;-47
2023/07/09 05:16:36;;;;;;;2.63;2.53;;;23.30;54.70;;;;;;5221797;28;20440;-47
2023/07/09 05:19:08;;;;;;;3.60;3.00;;;23.80;53.40;;;;;;5220494;28;20256;-47
2023/07/09 05:21:38;;;;;;;3.17;2.80;;;24.30;52.10;;;;;;5219808;28;20187;-46
2023/07/09 05:24:09;;;;;;;3.27;3.07;;;24.80;51.60;;;;;;5221304;28;20445;-47
2023/07/09 05:26:40;;;;;;;3.03;2.83;;;25.30;50.90;;;;;;5211564;28;20234;-48
2023/07/09 05:29:11;;;;;;;2.67;2.57;;;25.80;49.40;;;;;;5219121;28;20230;-47
2023/07/09 05:31:41;;;;;;;2.50;2.40;;;26.50;48.00;;;;;;5226564;28;20179;-47
2023/07/09 05:34:12;;;;;;;2.57;2.37;;;27.70;45.70;;;;;;5224895;28;20182;-47
2023/07/09 05:36:46;;;;;;;5.17;2.83;;;29.20;43.10;;;;;;5227590;28;20183;-47
2023/07/09 05:39:17;;;;;;;3.67;2.43;;;30.50;40.10;;;;;;5223349;28;20203;-47
2023/07/09 05:41:47;;;;;;;3.73;2.53;;;31.40;38.60;;;;;;5225817;28;20434;-48
2023/07/09 05:44:18;;;;;;;2.57;2.47;;;32.00;37.10;;;;;;5225155;28;20198;-48
2023/07/09 05:46:48;;;;;;;3.40;3.10;;;33.10;35.90;;;;;;5217911;28;20190;-48
2023/07/09 05:49:19;;;;;;;3.13;2.90;;;33.90;34.00;;;;;;5210875;28;20287;-49
2023/07/09 05:51:50;;;;;;;3.57;2.40;;;34.50;32.90;;;;;;5225007;28;20209;-48
2023/07/09 05:54:21;;;;;;;2.83;2.70;;;34.60;32.50;;;;;;5223964;28;20226;-48
2023/07/09 05:56:51;;;;;;;2.40;2.30;;;35.10;32.10;;;;;;5224160;28;20254;-48
2023/07/09 05:59:22;;;;;;;3.23;2.33;;;35.50;31.10;;;;;;5221401;28;20290;-48
2023/07/09 06:01:53;;;;;;;2.58;2.08;;;35.90;30.50;;;;;;5226893;28;20190;-49
2023/07/09 06:04:26;;;;;;;2.67;2.47;;;36.40;29.70;;;;;;5227421;28;20529;-50
2023/07/09 06:06:57;;;;;;;2.47;2.22;;;36.40;29.60;;;;;;5230505;28;20256;-47
2023/07/09 06:09:28;;;;;;;2.53;2.42;;;36.20;29.40;;;;;;5223502;28;20297;-50
2023/07/09 06:11:58;;;;;;;2.90;2.47;;;36.30;29.40;;;;;;5222442;28;20270;-48
2023/07/09 06:14:30;;;;;;;3.60;2.20;;;35.70;29.70;;;;;;5218034;28;20643;-48
2023/07/09 06:17:01;;;;;;;2.30;2.20;;;36.00;29.70;;;;;;5226634;28;20186;-48
2023/07/09 06:19:32;;;;;;;2.33;2.22;;;36.50;28.80;;;;;;5218016;28;20682;-48
2023/07/09 06:22:02;;;;;;;3.70;2.15;;;36.40;28.90;;;;;;5229815;28;20216;-49
2023/07/09 06:24:33;;;;;;;2.25;2.15;;;36.30;29.20;;;;;;5229544;28;20649;-48
2023/07/09 06:27:04;;;;;;;3.17;2.88;;;36.50;28.70;;;;;;5227952;28;20265;-48
2023/07/09 06:29:35;;;;;;;5.07;3.10;;;36.70;28.60;;;;;;5228483;28;20266;-50
2023/07/09 06:32:05;;;;;;;7.38;3.08;;;37.20;28.70;;;;;;5206396;28;20182;-48
2023/07/09 06:34:36;;;;;;;3.13;2.17;;;37.70;27.90;;;;;;5227368;28;20201;-49
2023/07/09 06:37:07;;;;;;;2.45;2.17;;;38.50;27.50;;;;;;5213656;28;20549;-49
2023/07/09 06:39:37;;;;;;;2.67;2.42;;;39.30;26.50;;;;;;5228201;28;20202;-48
2023/07/09 06:42:08;;;;;;;3.35;2.70;;;39.60;26.10;;;;;;5227463;28;20189;-49
2023/07/09 06:44:39;;;;;;;2.53;2.42;;;40.20;25.70;;;;;;5226602;28;20584;-48
2023/07/09 06:47:09;;;;;;;2.22;2.13;;;39.90;25.80;;;;;;5228366;28;20174;-49
2023/07/09 06:49:40;;;;;;;2.83;2.00;;;40.40;25.40;;;;;;5227375;28;20237;-49
2023/07/09 06:52:10;;;;;;;2.63;2.50;;;40.90;25.40;;;;;;5227912;28;21135;-49
2023/07/09 06:54:41;;;;;;;5.78;2.40;;;41.00;24.40;;;;;;5224918;28;20182;-49
2023/07/09 06:57:12;;;;;;;2.20;2.10;;;40.30;24.50;;;;;;5212453;28;20190;-50
2023/07/09 06:59:42;;;;;;;4.07;2.20;;;39.80;25.40;;;;;;5228729;28;20209;-49
2023/07/09 07:02:13;;;;;;;2.10;2.10;;;39.90;25.80;;;;;;5228228;28;20285;-49
2023/07/09 07:04:43;;;;;;;2.33;2.13;;;40.70;24.90;;;;;;5219486;28;20210;-49
2023/07/09 07:07:14;;;;;;;3.70;2.95;;;40.80;24.80;;;;;;5221255;28;20272;-49
2023/07/09 07:09:45;;;;;;;3.33;3.03;;;40.40;24.90;;;;;;5229119;28;20190;-49
2023/07/09 07:12:25;;;;;;;2.30;2.17;;;39.50;25.40;;;;;;5227819;28;20650;-49
2023/07/09 07:14:56;;;;;;;2.25;2.15;;;39.80;25.10;;;;;;5228244;28;20178;-49
2023/07/09 07:17:27;;;;;;;2.47;2.35;;;40.30;24.90;;;;;;5228032;28;20269;-49
2023/07/09 07:19:57;;;;;;;2.78;2.33;;;40.50;24.80;;;;;;5228771;28;20236;-49
2023/07/09 07:22:28;;;;;;;2.60;2.35;;;40.30;25.10;;;;;;5229141;28;20224;-48
2023/07/09 07:24:58;;;;;;;5.15;2.95;;;41.10;24.70;;;;;;5220503;28;20214;-49
2023/07/09 07:27:29;;;;;;;2.40;2.30;;;41.40;24.80;;;;;;5228258;28;20214;-50
2023/07/09 07:30:01;;;;;;;2.75;2.60;;;41.00;24.30;;;;;;5228840;28;20256;-49
2023/07/09 07:32:31;;;;;;;1.77;1.67;;;40.40;24.50;;;;;;5231606;28;20201;-49
2023/07/09 07:35:02;;;;;;;4.00;2.72;;;40.50;25.10;;;;;;5225738;28;20300;-48
2023/07/09 07:37:33;;;;;;;4.80;2.90;;;41.00;24.50;;;;;;5222425;28;20328;-50
2023/07/09 07:40:04;;;;;;;3.70;2.50;;;40.70;24.60;;;;;;5220077;28;20655;-49
2023/07/09 07:42:35;;;;;;;2.90;2.40;;;40.30;24.80;;;;;;5211730;28;20543;-49
2023/07/09 07:45:07;;;;;;;3.60;2.60;;;40.80;24.70;;;;;;5223269;28;20206;-50
2023/07/09 07:47:39;;;;;;;3.00;2.80;;;40.90;24.10;;;;;;5235575;28;20220;-49
2023/07/09 07:50:10;;;;;;;2.65;2.55;;;41.00;24.80;;;;;;5228133;28;20241;-50
2023/07/09 07:52:40;;;;;;;2.80;2.60;;;40.60;24.40;;;;;;5228484;28;20755;-49
2023/07/09 07:55:11;;;;;;;3.20;2.85;;;41.10;24.60;;;;;;5225289;28;20650;-49
2023/07/09 07:57:41;;;;;;;2.45;2.28;;;41.30;24.60;;;;;;5212471;28;20171;-48
2023/07/09 08:00:12;;;;;;;2.55;2.35;;;42.30;24.00;;;;;;5224925;28;20199;-49
2023/07/09 08:02:43;;;;;;;3.22;3.00;;;41.90;23.70;;;;;;5228670;28;20678;-49
2023/07/09 08:05:14;;;;;;;2.88;2.47;;;41.00;24.30;;;;;;5229542;28;20213;-49
2023/07/09 08:07:44;;;;;;;9.02;2.78;;;41.10;24.70;;;;;;5228506;28;20585;-49
2023/07/09 08:10:16;;;;;;;3.08;2.85;;;40.50;24.60;;;;;;5220368;28;20282;-49
2023/07/09 08:12:46;;;;;;;3.08;2.88;;;40.50;24.60;;;;;;5220284;28;20175;-49
2023/07/09 08:15:17;;;;;;;3.00;2.80;;;40.30;25.10;;;;;;5224530;28;20210;-49
2023/07/09 08:17:49;;;;;;;3.17;2.75;;;40.80;24.80;;;;;;5222756;28;20190;-49
2023/07/09 08:20:19;;;;;;;6.47;3.55;;;41.50;24.60;;;;;;5218582;28;20234;-49
2023/07/09 08:22:50;;;;;;;2.72;2.50;;;41.40;24.60;;;;;;5229321;28;20229;-50
2023/07/09 08:25:20;;;;;;;3.00;2.80;;;41.30;24.80;;;;;;5225129;28;20221;-49
2023/07/09 08:27:51;;;;;;;2.97;2.50;;;41.50;24.40;;;;;;5223143;28;20183;-50
2023/07/09 08:30:22;;;;;;;6.43;3.05;;;41.50;24.40;;;;;;5220998;28;20746;-50
2023/07/09 08:32:52;;;;;;;10.65;3.55;;;41.10;24.60;;;;;;5225091;28;20182;-49
2023/07/09 08:35:23;;;;;;;2.42;2.22;;;41.40;23.80;;;;;;5226854;28;20182;-49
2023/07/09 08:37:54;;;;;;;2.60;2.40;;;41.30;24.10;;;;;;5215860;28;20190;-49
2023/07/09 08:40:24;;;;;;;3.10;2.67;;;41.10;24.80;;;;;;5226200;28;20202;-48
2023/07/09 08:43:11;;;;;;;4.82;3.75;;;40.60;25.50;;;;;;5224982;28;20186;-49
2023/07/09 08:46:15;;;;;;;2.70;2.50;;;39.10;26.20;;;;;;5219552;28;20209;-50
2023/07/09 08:48:48;;;;;;;3.22;3.03;;;37.90;27.10;;;;;;5229878;28;20259;-49
2023/07/09 08:51:29;;;;;;;3.05;2.85;;;36.90;28.00;;;;;;5212682;28;20166;-49
2023/07/09 08:54:01;;;;;;;3.67;2.50;;;36.20;28.90;;;;;;5222241;28;20214;-49
2023/07/09 08:56:33;;;;;;;2.72;2.63;;;34.90;29.80;;;;;;5226866;28;20181;-49
2023/07/09 08:59:04;;;;;;;2.88;2.53;;;34.00;29.70;;;;;;5209626;28;20226;-49
2023/07/09 09:01:40;;;;;;;3.87;2.80;;;32.90;30.60;;;;;;5215344;28;20272;-48
2023/07/09 09:04:21;;;;;;;3.07;2.77;;;32.00;31.90;;;;;;5223912;28;20542;-48
2023/07/09 09:07:05;;;;;;;2.80;2.60;;;31.60;32.60;;;;;;5221309;28;20292;-48
2023/07/09 09:09:40;;;;;;;3.77;3.10;;;31.40;32.80;;;;;;5210130;28;20678;-47
2023/07/09 09:12:11;;;;;;;4.40;2.70;;;31.60;33.80;;;;;;5222022;28;20645;-48
2023/07/09 09:14:52;;;;;;;4.30;3.20;;;31.40;32.50;;;;;;5218153;28;20432;-48
2023/07/09 09:17:26;;;;;;;2.30;2.10;;;30.80;32.60;;;;;;5226249;28;20221;-48
2023/07/09 09:20:01;;;;;;;3.47;2.80;;;30.80;32.90;;;;;;5221502;28;20551;-48
2023/07/09 09:22:48;;;;;;;3.00;2.80;;;30.90;33.20;;;;;;5226804;28;20432;-49
2023/07/09 09:25:29;;;;;;;4.30;3.37;;;30.90;33.70;;;;;;5220215;28;20472;-48
2023/07/09 09:28:01;;;;;;;2.90;2.70;;;30.60;33.10;;;;;;5219012;28;20529;-48
2023/07/09 09:30:31;;;;;;;5.07;2.70;;;30.50;31.80;;;;;;5221014;28;20453;-49
2023/07/09 09:33:07;;;;;;;3.80;2.60;;;30.30;32.90;;;;;;5226647;28;20413;-48
2023/07/09 09:35:41;;;;;;;6.83;3.00;;;30.40;32.30;;;;;;5227806;28;20205;-47
2023/07/09 09:38:15;;;;;;;3.63;2.70;;;30.40;32.80;;;;;;5225394;28;20429;-49
2023/07/09 09:40:47;;;;;;;2.70;2.60;;;30.30;32.50;;;;;;5227744;28;20777;-48
2023/07/09 09:43:21;;;;;;;5.40;2.80;;;30.20;32.60;;;;;;5227843;28;20495;-47
2023/07/09 09:45:52;;;;;;;3.40;2.60;;;30.20;32.90;;;;;;5220430;28;20496;-49
2023/07/09 09:48:32;;;;;;;3.40;3.20;;;30.10;34.50;;;;;;5221976;28;20478;-48
2023/07/09 09:51:04;;;;;;;4.30;3.03;;;30.10;34.70;;;;;;5217651;28;20463;-48
2023/07/09 09:53:39;;;;;;;2.77;2.63;;;30.10;33.80;;;;;;5226461;28;20465;-47
2023/07/09 09:56:38;;;;;;;2.70;2.60;;;30.10;33.50;;;;;;5214103;28;20437;-47
2023/07/09 09:59:27;;;;;;;2.90;2.60;;;30.20;33.70;;;;;;5204948;28;20464;-48
2023/07/09 10:02:00;;;;;;;2.43;2.33;;;30.20;33.20;;;;;;5220859;28;20448;-49
2023/07/09 10:04:30;;;;;;;2.83;2.30;;;30.40;34.10;;;;;;5218848;28;20452;-48
2023/07/09 10:07:06;;;;;;;3.13;2.90;;;30.50;34.40;;;;;;5224078;28;20440;-49
2023/07/09 10:10:13;;;;;;;3.43;3.20;;;30.60;33.80;;;;;;5226125;28;20194;-48
2023/07/09 10:12:51;;;;;;;3.00;2.57;;;30.50;33.90;;;;;;5215497;28;20518;-47
2023/07/09 10:15:41;;;;;;;6.00;2.63;;;30.50;33.70;;;;;;5213893;28;20421;-49
2023/07/09 10:18:22;;;;;;;2.80;2.60;;;30.20;33.70;;;;;;5223538;28;20436;-47
2023/07/09 10:21:15;;;;;;;2.57;2.47;;;30.10;34.40;;;;;;5219505;28;20465;-48
2023/07/09 10:24:08;;;;;;;6.57;2.60;;;30.10;34.60;;;;;;5226319;28;20494;-48
2023/07/09 10:26:42;;;;;;;3.30;2.97;;;30.00;34.70;;;;;;5225214;28;20473;-48
2023/07/09 10:29:35;;;;;;;2.87;2.63;;;29.80;34.70;;;;;;5208874;28;20465;-47
2023/07/09 10:32:27;;;;;;;2.50;2.40;;;29.80;34.50;;;;;;5218910;28;20441;-47
2023/07/09 10:35:11;;;;;;;3.37;2.47;;;29.80;35.00;;;;;;5226155;28;20452;-48
2023/07/09 10:38:00;;;;;;;3.70;3.40;;;29.90;35.60;;;;;;5217969;28;20529;-49
2023/07/09 10:40:41;;;;;;;3.33;3.00;;;29.80;34.50;;;;;;5217621;28;20557;-48
2023/07/09 10:43:37;;;;;;;2.73;2.60;;;29.90;35.30;;;;;;5209413;28;20456;-49
2023/07/09 10:46:33;;;;;;;5.00;3.60;;;29.90;34.90;;;;;;5221499;28;20453;-48
2023/07/09 10:49:09;;;;;;;2.63;2.53;;;29.90;35.40;;;;;;5241180;23;20504;-46
2023/07/09 10:51:56;;;;;;;3.70;3.40;;;30.10;35.50;;;;;;5264408;28;20438;-44
2023/07/09 10:54:55;;;;;;;3.10;2.90;;;30.10;34.90;;;;;;5239829;28;20431;-45
2023/07/09 10:57:59;;;;;;;4.03;2.83;;;29.90;35.40;;;;;;5264747;28;20415;-43
2023/07/09 11:00:37;;;;;;;2.93;2.73;;;29.90;36.10;;;;;;5259650;28;20555;-43
2023/07/09 11:03:19;;;;;;;3.77;2.80;;;29.80;35.60;;;;;;5239595;28;20494;-45
2023/07/09 11:05:50;;;;;;;5.40;3.13;;;29.90;35.90;;;;;;5237259;28;20832;-45
2023/07/09 11:08:34;;;;;;;5.70;3.60;;;30.00;36.10;;;;;;5262794;28;20442;-43
2023/07/09 11:11:23;;;;;;;4.00;2.90;;;30.10;35.90;;;;;;5251742;28;20962;-44
2023/07/09 11:14:00;;;;;;;3.30;3.10;;;30.10;35.50;;;;;;5261094;28;20855;-44
2023/07/09 11:16:42;;;;;;;2.70;2.50;;;30.10;35.50;;;;;;5266881;28;20979;-45
2023/07/09 11:19:17;;;;;;;3.70;3.27;;;30.20;35.20;;;;;;5264770;28;20459;-45
2023/07/09 11:22:19;;;;;;;4.97;3.10;;;30.30;35.50;;;;;;5265034;28;20525;-43
2023/07/09 11:24:53;;;;;;;3.10;2.97;;;30.20;34.70;;;;;;5259454;28;20427;-44
2023/07/09 11:27:29;;;;;;;3.33;3.13;;;30.10;34.60;;;;;;5270170;28;20439;-44
2023/07/09 11:30:18;;;;;;;3.77;3.47;;;30.10;34.90;;;;;;5265570;28;20832;-45
2023/07/09 11:33:03;;;;;;;4.00;2.60;;;30.20;35.20;;;;;;5261206;28;20443;-50
2023/07/09 11:35:51;;;;;;;4.20;3.80;;;30.20;34.90;;;;;;5257604;28;20514;-45
2023/07/09 11:38:24;;;;;;;3.40;3.10;;;30.20;35.70;;;;;;5254932;28;20458;-44
2023/07/09 11:40:56;;;;;;;4.10;3.20;;;30.30;35.30;;;;;;5263246;28;20553;-45
2023/07/09 11:43:35;;;;;;;2.77;2.53;;;30.30;35.20;;;;;;5255836;28;20488;-45
2023/07/09 11:46:14;;;;;;;3.03;2.73;;;30.30;35.00;;;;;;5263082;28;20469;-45
2023/07/09 11:48:45;;;;;;;4.13;3.27;;;30.40;35.10;;;;;;5250124;28;20514;-45
2023/07/09 11:51:23;;;;;;;2.97;2.80;;;30.40;34.60;;;;;;5270423;28;20937;-44
2023/07/09 11:53:54;;;;;;;3.00;2.70;;;30.30;34.50;;;;;;5259733;28;20435;-44
2023/07/09 11:56:25;;;;;;;3.20;2.97;;;30.40;34.60;;;;;;5256690;28;20462;-44
2023/07/09 11:58:57;;;;;;;3.07;2.87;;;30.60;34.60;;;;;;5269828;28;20219;-44
2023/07/09 12:01:40;;;;;;;7.90;2.77;;;30.50;35.10;;;;;;5252635;28;20209;-44
2023/07/09 12:04:19;;;;;;;6.07;3.03;;;30.60;35.20;;;;;;5267461;28;20449;-45
2023/07/09 12:06:52;;;;;;;8.20;3.33;;;30.60;34.90;;;;;;5270168;28;21163;-45
2023/07/09 12:09:23;;;;;;;3.83;3.53;;;30.70;35.20;;;;;;5273457;28;20443;-43
2023/07/09 12:11:53;;;;;;;3.10;2.80;;;30.80;34.90;;;;;;5253936;28;20486;-45
2023/07/09 12:14:24;;;;;;;3.00;2.80;;;30.90;34.70;;;;;;5248815;28;20196;-44
2023/07/09 12:16:55;;;;;;;3.10;2.90;;;30.90;34.00;;;;;;5253439;28;20271;-45
2023/07/09 12:19:29;;;;;;;3.00;2.80;;;31.00;34.50;;;;;;5247561;28;20233;-45
2023/07/09 12:22:00;;;;;;;6.87;2.97;;;30.80;34.20;;;;;;5269083;28;20238;-45
2023/07/09 12:24:41;;;;;;;2.43;2.33;;;30.70;34.10;;;;;;5249519;28;20419;-45
2023/07/09 12:27:37;;;;;;;3.23;2.80;;;30.70;34.00;;;;;;5263180;28;20193;-45
2023/07/09 12:30:11;;;;;;;3.30;3.10;;;30.80;34.80;;;;;;5259807;28;20619;-45
2023/07/09 12:32:49;;;;;;;4.73;2.20;;;30.90;33.80;;;;;;5283433;28;20442;-45
2023/07/09 12:35:21;;;;;;;5.27;3.10;;;30.90;33.90;;;;;;5268684;28;20423;-44
2023/07/09 12:37:52;;;;;;;6.03;3.17;;;31.00;34.10;;;;;;5253039;28;20450;-45
2023/07/09 12:40:28;;;;;;;2.60;2.40;;;31.00;34.10;;;;;;5265594;28;20938;-43
2023/07/09 12:42:59;;;;;;;6.33;3.40;;;31.10;34.10;;;;;;5250627;28;20514;-43
2023/07/09 12:45:30;;;;;;;3.97;2.90;;;31.20;33.30;;;;;;5266175;28;21009;-44
2023/07/09 12:48:02;;;;;;;3.23;3.00;;;31.20;33.10;;;;;;5262303;28;20518;-43
2023/07/09 12:50:35;;;;;;;2.80;2.60;;;31.10;33.00;;;;;;5258310;28;20861;-44
2023/07/09 12:53:17;;;;;;;3.03;2.90;;;31.10;33.20;;;;;;5251968;28;20462;-44
2023/07/09 12:55:50;;;;;;;5.30;3.13;;;31.10;33.10;;;;;;5251978;28;20427;-44
2023/07/09 12:58:28;;;;;;;3.07;2.87;;;31.10;32.80;;;;;;5270015;28;20914;-44
2023/07/09 13:01:05;;;;;;;4.47;3.10;;;31.10;33.00;;;;;;5251573;28;20466;-43
2023/07/09 13:03:36;;;;;;;3.10;2.90;;;31.10;32.50;;;;;;5267834;28;20468;-44
2023/07/09 13:06:26;;;;;;;6.13;2.87;;;31.20;32.40;;;;;;5254583;28;20466;-46
2023/07/09 13:08:59;;;;;;;8.37;3.57;;;31.20;32.20;;;;;;5258690;28;20763;-44
2023/07/09 13:11:36;;;;;;;3.10;2.90;;;31.20;31.90;;;;;;5265033;28;20583;-44
2023/07/09 13:14:18;;;;;;;3.47;3.17;;;31.10;32.50;;;;;;5267116;28;20944;-44
2023/07/09 13:16:50;;;;;;;4.30;3.27;;;31.10;32.00;;;;;;5252067;28;20786;-44
2023/07/09 13:19:20;;;;;;;2.77;2.57;;;31.10;32.30;;;;;;5243027;28;20547;-44
2023/07/09 13:21:52;;;;;;;10.00;3.60;;;31.20;32.30;;;;;;5263172;28;20449;-44